Somerset, New Jersey
Current Conditions -  °F | °C
As of 1:53 PM on Wednesday 28 Jan 2015 (Local Time) from KSMQ Reporting Station
Clear Clear  
Wind Chill: 23°   Ceiling: Unl
Heat Index: 33°   Visibility: 10mi
Dew Point:   Wind: 14mph
Humidity: 37%   Direction: 330°NNW
Pressure: 30.07"   Gusts: 22mph
Location:  40.5°N, 74.52°W
Report Text: KSMQ 281853Z AUTO 33012G19KT 10SM CLR 01/M13 A3007 RMK AO2 SLP185 T00061128 TSNO
Loading
Personal Weather Stations






























Interactive Weather Map New forecast layout! Learn more

10-Day Weather Forecast

Advertisements
Track Severe Weather on mobile